createdAt,value
2019-06-01T00:02:14.572Z,6.10
2019-06-01T00:04:45.285Z,6.50
2019-06-01T00:07:15.660Z,6.23
2019-06-01T00:09:47.140Z,6.03
2019-06-01T00:12:20.283Z,5.50
2019-06-01T00:14:51.986Z,5.50
2019-06-01T00:17:22.232Z,5.30
2019-06-01T00:19:57.161Z,4.90
2019-06-01T00:22:27.299Z,4.43
2019-06-01T00:24:57.512Z,4.60
2019-06-01T00:27:27.765Z,4.37
2019-06-01T00:29:58.025Z,4.67
2019-06-01T00:32:28.277Z,4.70
2019-06-01T00:34:58.575Z,5.17
2019-06-01T00:37:29.377Z,4.33
2019-06-01T00:40:00.351Z,5.23
2019-06-01T00:42:30.509Z,4.87
2019-06-01T00:45:00.659Z,4.43
2019-06-01T00:47:30.815Z,4.90
2019-06-01T00:50:01.656Z,4.70
2019-06-01T00:52:31.774Z,4.90
2019-06-01T00:55:01.955Z,4.90
2019-06-01T00:57:32.381Z,5.10
2019-06-01T01:00:02.568Z,4.90
2019-06-01T01:02:34.410Z,5.17
2019-06-01T01:05:12.183Z,4.70
2019-06-01T01:07:42.376Z,4.63
2019-06-01T01:10:12.733Z,4.83
2019-06-01T01:13:00.649Z,4.70
2019-06-01T01:15:30.891Z,5.10
2019-06-01T01:18:02.451Z,5.10
2019-06-01T01:20:33.730Z,5.17
2019-06-01T01:23:03.945Z,4.87
2019-06-01T01:25:34.111Z,4.67
2019-06-01T01:28:04.535Z,5.10
2019-06-01T01:30:35.202Z,5.37
2019-06-01T01:33:05.516Z,5.17
2019-06-01T01:35:35.731Z,4.70
2019-06-01T01:38:05.887Z,4.73
2019-06-01T01:40:36.342Z,4.80
2019-06-01T01:43:06.540Z,4.77
2019-06-01T01:45:36.722Z,4.53
2019-06-01T01:48:06.872Z,4.73
2019-06-01T01:50:37.173Z,5.43
2019-06-01T01:53:07.342Z,5.27
2019-06-01T01:55:37.574Z,5.03
2019-06-01T01:58:09.480Z,5.47
2019-06-01T02:00:44.687Z,5.00
2019-06-01T02:03:14.828Z,4.43
2019-06-01T02:05:45.107Z,5.30
2019-06-01T02:08:15.484Z,4.87
2019-06-01T02:10:45.705Z,5.20
2019-06-01T02:13:15.805Z,4.93
2019-06-01T02:15:45.993Z,4.30
2019-06-01T02:18:16.339Z,5.67
2019-06-01T02:20:46.493Z,5.23
2019-06-01T02:23:16.769Z,4.93
2019-06-01T02:25:46.909Z,5.07
2019-06-01T02:28:17.073Z,5.27
2019-06-01T02:30:47.447Z,5.20
2019-06-01T02:33:17.766Z,6.10
2019-06-01T02:35:47.898Z,5.43
2019-06-01T02:38:18.277Z,5.97
2019-06-01T02:40:49.310Z,5.80
2019-06-01T02:43:21.120Z,5.17
2019-06-01T02:45:51.561Z,5.43
2019-06-01T02:48:21.807Z,5.10
2019-06-01T02:50:51.995Z,6.20
2019-06-01T02:53:22.229Z,5.70
2019-06-01T02:55:52.351Z,6.17
2019-06-01T02:58:22.572Z,6.00
2019-06-01T03:01:34.496Z,6.80
2019-06-01T03:04:08.546Z,5.60
2019-06-01T03:06:44.382Z,5.97
2019-06-01T03:09:16.364Z,6.50
2019-06-01T03:11:48.557Z,6.53
2019-06-01T03:14:20.664Z,6.33
2019-06-01T03:16:53.175Z,6.43
2019-06-01T03:19:26.169Z,6.33
2019-06-01T03:22:00.015Z,6.80
2019-06-01T03:24:33.695Z,6.63
2019-06-01T03:27:06.242Z,6.40
2019-06-01T03:29:41.279Z,6.50
2019-06-01T03:32:29.045Z,7.20
2019-06-01T03:34:46.572Z,6.13
2019-06-01T03:37:16.938Z,6.13
2019-06-01T03:39:47.198Z,6.90
2019-06-01T03:42:17.757Z,7.13
2019-06-01T03:44:50.223Z,6.50
2019-06-01T03:47:22.565Z,6.53
2019-06-01T03:49:54.310Z,7.70
2019-06-01T03:52:24.414Z,6.83
2019-06-01T03:54:56.865Z,6.23
2019-06-01T03:57:27.017Z,6.53
2019-06-01T03:59:58.570Z,6.80
2019-06-01T04:02:33.255Z,6.67
2019-06-01T04:05:05.492Z,6.00
2019-06-01T04:07:38.781Z,7.20
2019-06-01T04:10:09.822Z,5.90
2019-06-01T04:12:41.203Z,5.60
2019-06-01T04:15:14.514Z,6.80
2019-06-01T04:17:45.033Z,6.47
2019-06-01T04:20:57.557Z,6.53
2019-06-01T04:24:04.012Z,6.97
2019-06-01T04:26:41.921Z,7.07
2019-06-01T04:29:13.950Z,6.80
2019-06-01T04:31:46.918Z,6.80
2019-06-01T04:34:18.764Z,6.60
2019-06-01T04:36:49.069Z,6.80
2019-06-01T04:39:19.272Z,6.47
2019-06-01T04:41:49.393Z,6.87
2019-06-01T04:44:19.552Z,6.13
2019-06-01T04:46:49.739Z,6.13
2019-06-01T04:49:19.945Z,6.20
2019-06-01T04:51:50.142Z,5.97
2019-06-01T04:54:20.520Z,6.47
2019-06-01T04:56:52.926Z,5.27
2019-06-01T04:59:23.353Z,5.73
2019-06-01T05:01:57.369Z,6.27
2019-06-01T05:04:27.584Z,5.23
2019-06-01T05:06:58.953Z,6.73
2019-06-01T05:09:29.339Z,5.90
2019-06-01T05:11:59.660Z,5.80
2019-06-01T05:14:31.140Z,5.77
2019-06-01T05:17:01.413Z,5.57
2019-06-01T05:19:31.684Z,6.77
2019-06-01T05:22:01.897Z,7.80
2019-06-01T05:24:32.196Z,5.67
2019-06-01T05:27:08.991Z,5.60
2019-06-01T05:29:39.462Z,5.83
2019-06-01T05:32:10.422Z,5.40
2019-06-01T05:34:40.825Z,4.97
2019-06-01T05:37:12.322Z,5.63
2019-06-01T05:39:42.610Z,5.03
2019-06-01T05:42:12.835Z,5.03
2019-06-01T05:44:43.007Z,5.30
2019-06-01T05:47:14.241Z,4.53
2019-06-01T05:49:44.811Z,5.20
2019-06-01T05:52:14.952Z,5.23
2019-06-01T05:54:45.262Z,5.60
2019-06-01T05:57:15.417Z,5.03
2019-06-01T05:59:45.819Z,4.93
2019-06-01T06:02:17.371Z,4.97
2019-06-01T06:04:48.752Z,4.70
2019-06-01T06:07:19.081Z,4.97
2019-06-01T06:09:49.372Z,5.60
2019-06-01T06:12:19.571Z,4.53
2019-06-01T06:14:52.930Z,4.27
2019-06-01T06:17:24.304Z,4.67
2019-06-01T06:19:54.687Z,4.50
2019-06-01T06:22:24.876Z,4.60
2019-06-01T06:24:55.052Z,5.13
2019-06-01T06:27:25.218Z,4.40
2019-06-01T06:29:55.374Z,4.20
2019-06-01T06:32:25.557Z,5.00
2019-06-01T06:34:55.590Z,4.77
2019-06-01T06:37:27.373Z,4.00
2019-06-01T06:40:00.832Z,4.17
2019-06-01T06:42:31.129Z,3.80
2019-06-01T06:45:03.509Z,4.20
2019-06-01T06:47:33.170Z,4.20
2019-06-01T06:50:03.382Z,4.90
2019-06-01T06:52:33.549Z,4.27
2019-06-01T06:55:03.688Z,4.13
2019-06-01T06:57:36.246Z,4.23
2019-06-01T07:00:06.642Z,3.80
2019-06-01T07:02:37.321Z,4.07
2019-06-01T07:05:07.612Z,4.03
2019-06-01T07:07:38.956Z,4.30
2019-06-01T07:10:09.610Z,4.17
2019-06-01T07:12:39.830Z,5.10
2019-06-01T07:15:10.288Z,4.17
2019-06-01T07:17:40.459Z,4.00
2019-06-01T07:20:10.758Z,4.13
2019-06-01T07:22:41.022Z,4.50
2019-06-01T07:25:11.437Z,4.50
2019-06-01T07:27:41.634Z,4.43
2019-06-01T07:30:13.416Z,4.47
2019-06-01T07:32:43.757Z,5.03
2019-06-01T07:35:15.108Z,4.70
2019-06-01T07:37:45.360Z,4.97
2019-06-01T07:40:15.593Z,4.13
2019-06-01T07:42:45.754Z,4.77
2019-06-01T07:45:15.925Z,5.07
2019-06-01T07:47:46.161Z,5.13
2019-06-01T07:50:16.395Z,5.03
2019-06-01T07:52:46.597Z,4.97
2019-06-01T07:55:16.842Z,4.73
2019-06-01T07:57:47.149Z,4.50
2019-06-01T08:00:17.418Z,4.30
2019-06-01T08:02:48.755Z,4.80
2019-06-01T08:05:23.240Z,5.00
2019-06-01T08:07:52.619Z,4.80
2019-06-01T08:10:24.447Z,4.83
2019-06-01T08:12:55.068Z,4.30
2019-06-01T08:15:28.059Z,5.20
2019-06-01T08:18:02.005Z,4.60
2019-06-01T08:20:34.957Z,4.87
2019-06-01T08:23:05.215Z,4.50
2019-06-01T08:25:35.506Z,4.72
2019-06-01T08:28:06.269Z,5.30
2019-06-01T08:30:39.660Z,4.58
2019-06-01T08:33:12.138Z,4.95
2019-06-01T08:35:42.370Z,4.60
2019-06-01T08:38:15.904Z,4.53
2019-06-01T08:40:46.104Z,5.05
2019-06-01T08:43:16.388Z,4.53
2019-06-01T08:45:46.685Z,4.30
2019-06-01T08:48:16.866Z,3.77
2019-06-01T08:50:47.125Z,5.35
2019-06-01T08:53:17.405Z,4.90
2019-06-01T08:55:47.634Z,5.12
2019-06-01T08:58:17.904Z,4.70
2019-06-01T09:00:48.092Z,4.25
2019-06-01T09:03:18.410Z,4.73
2019-06-01T09:05:49.615Z,5.28
2019-06-01T09:08:23.606Z,5.15
2019-06-01T09:10:53.910Z,5.45
2019-06-01T09:13:25.107Z,5.03
2019-06-01T09:15:55.374Z,5.60
2019-06-01T09:18:25.765Z,6.00
2019-06-01T09:20:55.930Z,5.47
2019-06-01T09:23:29.515Z,6.23
2019-06-01T09:26:01.244Z,5.40
2019-06-01T09:28:31.910Z,5.50
2019-06-01T09:31:02.194Z,5.35
2019-06-01T09:33:32.402Z,5.00
2019-06-01T09:36:02.603Z,6.00
2019-06-01T09:38:33.757Z,6.73
2019-06-01T09:41:04.026Z,5.17
2019-06-01T09:43:34.993Z,5.53
2019-06-01T09:46:05.221Z,5.95
2019-06-01T09:48:38.204Z,5.95
2019-06-01T09:51:08.463Z,5.92
2019-06-01T09:53:39.538Z,5.97
2019-06-01T09:56:09.734Z,6.85
2019-06-01T09:58:40.263Z,6.95
2019-06-01T10:01:16.784Z,6.60
2019-06-01T10:03:51.110Z,6.25
2019-06-01T10:06:23.639Z,5.33
2019-06-01T10:08:58.465Z,6.30
2019-06-01T10:11:29.843Z,6.43
2019-06-01T10:14:00.642Z,6.40
2019-06-01T10:16:34.543Z,6.12
2019-06-01T10:19:11.769Z,6.40
2019-06-01T10:21:42.950Z,7.20
2019-06-01T10:24:13.381Z,6.40
2019-06-01T10:26:43.786Z,6.37
2019-06-01T10:29:13.972Z,6.22
2019-06-01T10:31:44.468Z,6.20
2019-06-01T10:34:14.763Z,6.67
2019-06-01T10:37:01.972Z,6.22
2019-06-01T10:39:33.323Z,5.92
2019-06-01T10:42:03.495Z,6.78
2019-06-01T10:44:41.199Z,6.50
2019-06-01T10:47:08.069Z,6.33
2019-06-01T10:49:38.240Z,6.35
2019-06-01T10:52:08.434Z,6.95
2019-06-01T10:54:38.606Z,7.42
2019-06-01T10:57:08.775Z,6.62
2019-06-01T10:59:39.050Z,6.42
2019-06-01T11:02:09.953Z,6.45
2019-06-01T11:04:41.104Z,6.05
2019-06-01T11:07:11.491Z,6.83
2019-06-01T11:09:41.737Z,6.40
2019-06-01T11:12:12.820Z,6.45
2019-06-01T11:14:43.411Z,6.65
2019-06-01T11:17:15.324Z,6.12
2019-06-01T11:19:46.448Z,7.03
2019-06-01T11:22:24.077Z,5.80
2019-06-01T11:24:55.944Z,6.83
2019-06-01T11:27:27.775Z,6.50
2019-06-01T11:29:57.992Z,7.42
2019-06-01T11:32:28.269Z,7.10
2019-06-01T11:34:58.439Z,6.95
2019-06-01T11:37:28.623Z,7.53
2019-06-01T11:39:58.812Z,6.83
2019-06-01T11:42:28.986Z,6.55
2019-06-01T11:44:59.303Z,6.60
2019-06-01T11:47:29.504Z,6.63
2019-06-01T11:49:59.737Z,6.03
2019-06-01T11:52:29.909Z,6.87
2019-06-01T11:55:00.147Z,7.37
2019-06-01T11:57:30.313Z,7.37
2019-06-01T12:00:00.505Z,6.90
2019-06-01T12:02:32.316Z,7.17
2019-06-01T12:05:02.613Z,5.95
2019-06-01T12:07:32.781Z,6.95
2019-06-01T12:10:03.055Z,6.60
2019-06-01T12:12:36.024Z,6.55
2019-06-01T12:15:09.575Z,5.90
2019-06-01T12:17:40.653Z,5.75
2019-06-01T12:20:11.791Z,6.92
2019-06-01T12:22:42.930Z,6.00
2019-06-01T12:25:14.520Z,6.42
2019-06-01T12:27:45.976Z,6.12
2019-06-01T12:30:16.592Z,6.03
2019-06-01T12:32:48.709Z,6.65
2019-06-01T12:35:19.150Z,5.42
2019-06-01T12:38:04.379Z,5.83
2019-06-01T12:40:21.300Z,6.10
2019-06-01T12:42:55.033Z,5.90
2019-06-01T12:45:25.655Z,5.60
2019-06-01T12:47:58.503Z,6.55
2019-06-01T12:50:29.303Z,6.30
2019-06-01T12:52:59.540Z,6.37
2019-06-01T12:55:29.809Z,6.22
2019-06-01T12:57:59.997Z,6.17
2019-06-01T13:00:30.202Z,6.00
2019-06-01T13:03:06.992Z,5.22
2019-06-01T13:05:32.678Z,6.75
2019-06-01T13:08:03.210Z,5.80
2019-06-01T13:10:35.038Z,5.92
2019-06-01T13:13:05.211Z,5.95
2019-06-01T13:15:35.440Z,6.53
2019-06-01T13:18:05.953Z,5.78
2019-06-01T13:20:39.136Z,6.87
2019-06-01T13:23:09.240Z,6.05
2019-06-01T13:25:39.529Z,6.25
2019-06-01T13:28:09.643Z,6.20
2019-06-01T13:30:39.788Z,5.92
2019-06-01T13:33:09.970Z,5.95
2019-06-01T13:35:40.244Z,6.25
2019-06-01T13:38:12.257Z,6.47
2019-06-01T13:40:42.940Z,6.40
2019-06-01T13:43:13.277Z,5.95
2019-06-01T13:45:43.500Z,5.47
2019-06-01T13:48:13.729Z,5.37
2019-06-01T13:50:43.917Z,5.78
2019-06-01T13:53:15.447Z,5.28
2019-06-01T13:55:46.044Z,5.08
2019-06-01T13:58:16.261Z,5.20
2019-06-01T14:00:46.411Z,5.20
2019-06-01T14:03:16.624Z,6.00
2019-06-01T14:05:46.958Z,4.97
2019-06-01T14:08:28.496Z,5.90
2019-06-01T14:10:51.280Z,5.97
2019-06-01T14:13:21.635Z,5.17
2019-06-01T14:15:51.912Z,5.05
2019-06-01T14:18:22.097Z,5.05
2019-06-01T14:20:52.323Z,4.83
2019-06-01T14:23:22.798Z,4.97
2019-06-01T14:25:54.106Z,21.73
2019-06-01T14:28:24.571Z,9.95
2019-06-01T14:30:54.708Z,5.60
2019-06-01T14:33:25.021Z,5.47
2019-06-01T14:35:55.127Z,5.20
2019-06-01T14:38:25.267Z,8.58
2019-06-01T14:40:55.455Z,7.60
2019-06-01T14:43:25.583Z,6.62
2019-06-01T14:45:56.008Z,5.95
2019-06-01T14:48:26.211Z,6.20
2019-06-01T14:50:57.790Z,5.60
2019-06-01T14:53:28.144Z,9.28
2019-06-01T14:55:58.336Z,5.40
2019-06-01T14:58:30.208Z,5.30
2019-06-01T15:01:00.470Z,5.67
2019-06-01T15:03:32.502Z,4.83
2019-06-01T15:06:02.732Z,5.90
2019-06-01T15:08:32.943Z,5.20
2019-06-01T15:11:03.298Z,5.22
2019-06-01T15:13:36.087Z,5.90
2019-06-01T15:16:06.394Z,6.10
2019-06-01T15:18:36.553Z,5.08
2019-06-01T15:21:09.115Z,5.10
2019-06-01T15:23:39.504Z,4.90
2019-06-01T15:26:09.608Z,4.90
2019-06-01T15:28:39.833Z,5.20
2019-06-01T15:31:12.259Z,5.20
2019-06-01T15:33:42.517Z,5.53
2019-06-01T15:36:12.660Z,5.33
2019-06-01T15:38:42.861Z,5.37
2019-06-01T15:41:13.057Z,5.00
2019-06-01T15:43:43.284Z,6.05
2019-06-01T15:46:13.445Z,6.17
2019-06-01T15:48:43.701Z,6.05
2019-06-01T15:51:13.881Z,4.78
2019-06-01T15:53:44.311Z,7.28
2019-06-01T15:56:14.513Z,9.43
2019-06-01T15:58:52.856Z,7.55
2019-06-01T16:01:18.288Z,6.15
2019-06-01T16:03:49.541Z,6.80
2019-06-01T16:06:19.818Z,7.22
2019-06-01T16:08:50.455Z,6.65
2019-06-01T16:11:21.625Z,6.42
2019-06-01T16:13:51.826Z,6.78
2019-06-01T16:16:21.970Z,6.30
2019-06-01T16:18:57.247Z,7.37
2019-06-01T16:21:24.497Z,7.12
2019-06-01T16:23:55.909Z,8.08
2019-06-01T16:26:26.487Z,8.93
2019-06-01T16:28:58.568Z,7.55
2019-06-01T16:31:28.735Z,9.55
2019-06-01T16:33:58.970Z,7.97
2019-06-01T16:36:29.113Z,7.42
2019-06-01T16:39:02.830Z,8.18
2019-06-01T16:41:32.995Z,8.25
2019-06-01T16:44:03.783Z,8.05
2019-06-01T16:46:35.502Z,8.25
2019-06-01T16:49:06.870Z,8.13
2019-06-01T16:51:59.344Z,7.97
2019-06-01T16:54:30.098Z,9.33
2019-06-01T16:57:01.121Z,8.08
2019-06-01T16:59:31.348Z,7.85
2019-06-01T17:02:02.897Z,8.08
2019-06-01T17:04:33.527Z,7.03
2019-06-01T17:07:05.653Z,7.33
2019-06-01T17:09:37.892Z,7.17
2019-06-01T17:12:08.086Z,14.65
2019-06-01T17:14:38.282Z,8.83
2019-06-01T17:17:08.501Z,8.55
2019-06-01T17:19:38.747Z,7.20
2019-06-01T17:22:08.988Z,8.53
2019-06-01T17:24:39.332Z,8.20
2019-06-01T17:27:09.593Z,8.18
2019-06-01T17:29:39.936Z,7.80
2019-06-01T17:32:22.951Z,7.17
2019-06-01T17:34:42.025Z,7.10
2019-06-01T17:37:12.274Z,7.90
2019-06-01T17:39:44.077Z,7.58
2019-06-01T17:42:15.921Z,7.45
2019-06-01T17:44:46.102Z,7.72
2019-06-01T17:47:16.369Z,7.35
2019-06-01T17:49:46.729Z,7.00
2019-06-01T17:52:17.025Z,7.60
2019-06-01T17:54:47.193Z,7.12
2019-06-01T17:57:17.379Z,6.97
2019-06-01T17:59:49.107Z,7.37
2019-06-01T18:02:34.551Z,7.20
2019-06-01T18:05:05.830Z,7.28
2019-06-01T18:07:36.432Z,7.42
2019-06-01T18:10:06.645Z,7.45
2019-06-01T18:12:36.884Z,7.72
2019-06-01T18:15:08.288Z,10.50
2019-06-01T18:17:38.798Z,7.42
2019-06-01T18:20:09.118Z,6.78
2019-06-01T18:22:39.394Z,7.83
2019-06-01T18:25:13.410Z,7.75
2019-06-01T18:27:44.711Z,8.50
2019-06-01T18:30:18.718Z,9.80
2019-06-01T18:32:49.177Z,8.20
2019-06-01T18:35:24.848Z,7.62
2019-06-01T18:38:07.664Z,7.15
2019-06-01T18:40:38.714Z,8.08
2019-06-01T18:43:14.693Z,7.60
2019-06-01T18:45:47.144Z,8.53
2019-06-01T18:48:19.556Z,7.40
2019-06-01T18:50:51.767Z,7.70
2019-06-01T18:53:31.976Z,7.40
2019-06-01T18:55:57.436Z,9.63
2019-06-01T18:58:27.715Z,8.70
2019-06-01T19:00:57.952Z,8.90
2019-06-01T19:03:30.416Z,9.45
2019-06-01T19:06:01.719Z,8.88
2019-06-01T19:08:34.711Z,8.38
2019-06-01T19:11:06.062Z,8.15
2019-06-01T19:13:36.579Z,8.80
2019-06-01T19:16:07.940Z,9.85
2019-06-01T19:18:42.735Z,9.90
2019-06-01T19:21:12.994Z,8.88
2019-06-01T19:23:45.068Z,9.03
2019-06-01T19:26:18.872Z,9.87
2019-06-01T19:28:52.285Z,10.53
2019-06-01T19:31:22.671Z,10.35
2019-06-01T19:33:54.907Z,15.47
2019-06-01T19:36:28.635Z,15.73
2019-06-01T19:39:09.089Z,13.68
2019-06-01T19:41:53.756Z,12.13
2019-06-01T19:44:29.998Z,10.83
2019-06-01T19:47:05.142Z,12.40
2019-06-01T19:49:37.624Z,13.23
2019-06-01T19:52:08.561Z,11.43
2019-06-01T19:54:45.871Z,13.27
2019-06-01T19:57:21.754Z,13.30
2019-06-01T19:59:53.861Z,12.33
2019-06-01T20:02:33.299Z,10.90
2019-06-01T20:04:56.156Z,12.80
2019-06-01T20:07:26.434Z,12.75
2019-06-01T20:09:56.842Z,12.13
2019-06-01T20:12:34.389Z,12.70
2019-06-01T20:15:11.329Z,11.38
2019-06-01T20:17:53.935Z,11.43
2019-06-01T20:20:29.778Z,12.03
2019-06-01T20:23:06.470Z,11.43
2019-06-01T20:25:41.983Z,11.60
2019-06-01T20:28:22.000Z,11.33
2019-06-01T20:31:15.750Z,12.47
2019-06-01T20:33:49.795Z,12.60
2019-06-01T20:36:23.130Z,11.80
2019-06-01T20:38:54.046Z,12.27
2019-06-01T20:41:24.796Z,12.27
2019-06-01T20:43:59.184Z,12.70
2019-06-01T20:48:28.156Z,12.40
2019-06-01T20:50:28.288Z,12.63
2019-06-01T20:53:06.781Z,12.97
2019-06-01T20:55:49.807Z,13.23
2019-06-01T21:12:12.006Z,13.47
2019-06-01T21:14:46.923Z,13.50
2019-06-01T21:17:01.868Z,13.00
2019-06-01T21:36:06.768Z,13.30
2019-06-01T21:38:49.675Z,13.90
2019-06-01T21:41:41.483Z,14.17
2019-06-01T21:44:38.265Z,14.17
2019-06-01T21:47:11.455Z,15.60
2019-06-01T21:49:49.069Z,14.77
2019-06-01T21:52:26.232Z,15.07
2019-06-01T21:55:06.141Z,14.77
2019-06-01T21:57:39.367Z,16.27
2019-06-01T22:00:14.051Z,14.80
2019-06-01T22:02:51.409Z,15.30
2019-06-01T22:05:23.001Z,15.23
2019-06-01T22:07:55.030Z,15.27
2019-06-01T22:10:29.802Z,15.67
2019-06-01T22:13:18.558Z,15.77
2019-06-01T22:15:50.799Z,16.13
2019-06-01T22:18:23.677Z,15.87
2019-06-01T22:21:06.720Z,16.13
2019-06-01T22:23:39.248Z,16.63
2019-06-01T22:26:13.455Z,15.77
2019-06-01T22:28:49.466Z,17.20
2019-06-01T22:31:24.536Z,14.90
2019-06-01T22:34:18.501Z,16.77
2019-06-01T22:36:47.391Z,17.60
2019-06-01T22:39:24.777Z,15.43
2019-06-01T22:41:55.018Z,16.30
2019-06-01T22:44:26.208Z,17.20
2019-06-01T22:46:59.176Z,16.33
2019-06-01T22:49:29.391Z,17.60
2019-06-01T22:51:59.590Z,17.30
2019-06-01T22:54:29.739Z,16.23
2019-06-01T22:56:59.873Z,15.97
2019-06-01T22:59:32.824Z,17.77
2019-06-01T23:02:03.176Z,16.00
2019-06-01T23:04:33.392Z,17.20
2019-06-01T23:07:03.591Z,16.90
2019-06-01T23:09:33.709Z,15.43
2019-06-01T23:12:03.923Z,16.83
2019-06-01T23:14:34.110Z,16.70
2019-06-01T23:17:05.634Z,16.83
2019-06-01T23:19:35.884Z,17.30
2019-06-01T23:22:06.139Z,18.10
2019-06-01T23:24:36.339Z,19.30
2019-06-01T23:27:06.549Z,17.77
2019-06-01T23:29:36.771Z,18.30
2019-06-01T23:32:07.239Z,18.77
2019-06-01T23:34:37.369Z,19.13
2019-06-01T23:37:07.624Z,20.23
2019-06-01T23:39:38.012Z,20.33
2019-06-01T23:42:08.175Z,20.20
2019-06-01T23:44:44.070Z,21.10
2019-06-01T23:47:14.384Z,24.07
2019-06-01T23:49:44.585Z,24.70
2019-06-01T23:52:14.790Z,24.50
2019-06-01T23:54:45.107Z,21.73
2019-06-01T23:57:16.552Z,18.53
2019-06-01T23:59:46.671Z,18.17
